Global Prosperity — 3EFD4 — position and weather

sailwx.info

Track history (hours):
 
Tides and Currents Weather Stations Pressure Air Temp Water Temp Dewpoint Dewpoint Depression Visibility Wind Speed Wind Dir Waves Ship Positions

Global Prosperity

Last reported at 2018-May-23 23:55 UTC. Time now 2018-May-24 00:07 UTC.
Position N 31°36' E 121°19'.

Length 175 m; draft 10.4 m.

Type: Cargo ship. MMSI: 353285000.

Date/timePositionNaut miles runAvg speedWind from/ knotsBaromVisibWave heightAir tempDewpointWater temp
2018-May-23 23:55N 31°36' E 121°19'0 0.0
2018-May-23 23:28N 31°36' E 121°19'0 0.1
2018-May-23 22:55N 31°36' E 121°19'0 0.2
2018-May-23 22:16N 31°36' E 121°19'0 0.3
2018-May-23 21:55N 31°36' E 121°19'0 0.1
2018-May-23 21:25N 31°36' E 121°19'0 0.0
2018-May-23 20:49N 31°35' E 121°19'0 0.0
2018-May-23 20:28N 31°35' E 121°19'0 0.0
2018-May-23 19:55N 31°35' E 121°19'0 0.0
2018-May-23 19:25N 31°35' E 121°19'0 0.0
2018-May-23 18:55N 31°35' E 121°19'0 0.0
2018-May-23 18:22N 31°35' E 121°19'0 0.0
2018-May-23 17:58N 31°35' E 121°19'0 0.0
2018-May-23 17:19N 31°35' E 121°19'0 0.0
2018-May-23 16:58N 31°35' E 121°19'0 0.0
2018-May-23 16:28N 31°35' E 121°19'0 0.1
2018-May-23 15:58N 31°36' E 121°19'0 0.0
2018-May-23 15:28N 31°36' E 121°19'0 0.0
2018-May-23 14:58N 31°36' E 121°19'0 0.2
2018-May-23 14:28N 31°36' E 121°19'0 0.3
2018-May-23 13:58N 31°36' E 121°19'0 0.0
2018-May-23 13:28N 31°36' E 121°19'0 0.0
2018-May-23 12:55N 31°36' E 121°19'0 0.0
2018-May-23 12:28N 31°36' E 121°19'0 0.0
2018-May-23 11:49N 31°36' E 121°19'0 0.0
2018-May-23 11:25N 31°36' E 121°19'0 0.0
2018-May-23 10:58N 31°36' E 121°19'0 0.0
2018-May-23 10:28N 31°36' E 121°19'0 0.2
2018-May-23 09:58N 31°36' E 121°19'0 0.2
2018-May-23 09:22N 31°36' E 121°19'0 0.0
2018-May-23 08:52N 31°35' E 121°19'0 0.0
2018-May-23 08:28N 31°35' E 121°19'0 0.0
2018-May-23 07:55N 31°35' E 121°19'0 0.0
2018-May-23 07:28N 31°35' E 121°19'0 0.0
2018-May-23 06:58N 31°35' E 121°19'0 0.1
2018-May-23 06:28N 31°36' E 121°19'0 0.0
2018-May-23 05:58N 31°36' E 121°19'0 0.0
2018-May-23 05:25N 31°36' E 121°19'0 0.0
2018-May-23 04:55N 31°36' E 121°19'0 0.0
2018-May-23 04:28N 31°36' E 121°19'0 0.0
2018-May-23 03:58N 31°36' E 121°19'0 0.0
2018-May-23 03:28N 31°36' E 121°19'0 0.0
2018-May-23 02:55N 31°36' E 121°19'0 0.0
2018-May-23 02:28N 31°36' E 121°19'0 0.0
2018-May-23 01:55N 31°36' E 121°19'0 0.1
2018-May-23 01:25N 31°35' E 121°19'0 0.3
2018-May-23 00:58N 31°36' E 121°19'0 0.1
2018-May-23 00:25N 31°36' E 121°19'0 0.0
2018-May-22 23:58N 31°36' E 121°19'0 0.0
2018-May-22 23:28N 31°36' E 121°19'0 0.0
2018-May-22 22:58N 31°36' E 121°19'0 0.0
2018-May-22 22:28N 31°36' E 121°19'0 0.0
2018-May-22 21:58N 31°36' E 121°19'0 0.2
2018-May-22 21:28N 31°36' E 121°19'0 0.2
2018-May-22 20:58N 31°35' E 121°19'0 0.0
2018-May-22 20:25N 31°35' E 121°19'0 0.1
2018-May-22 19:55N 31°35' E 121°19'0 0.0
2018-May-22 19:25N 31°35' E 121°19'0 0.0
2018-May-22 18:55N 31°36' E 121°19'0 0.0
2018-May-22 18:22N 31°35' E 121°19'0 0.0
2018-May-22 17:58N 31°36' E 121°19'0 0.1
2018-May-22 17:28N 31°35' E 121°19'0 0.1
2018-May-22 16:55N 31°36' E 121°19'0 0.0
2018-May-22 16:25N 31°36' E 121°19'0 0.0
2018-May-22 15:55N 31°35' E 121°19'0 0.1
2018-May-22 15:28N 31°36' E 121°19'0 0.0
2018-May-22 14:58N 31°35' E 121°19'0 0.0
2018-May-22 14:28N 31°36' E 121°19'0 0.2
2018-May-22 13:55N 31°36' E 121°19'2 4.3
2018-May-22 13:27N 31°34' E 121°20'4 8.6
2018-May-22 13:00N 31°31' E 121°23'5 9.5
2018-May-22 12:30N 31°28' E 121°28'4 7.3
2018-May-22 12:00N 31°25' E 121°31'28 9.0
2018-May-22 08:55N 31°15' E 122°00'15 9.6
2018-May-22 07:20N 31°07' E 122°16'  
Track history (hours):
 
Tides and Currents Weather Stations Pressure Air Temp Water Temp Dewpoint Dewpoint Depression Visibility Wind Speed Wind Dir Waves Ship Positions

Global Prosperity

Last reported at 2018-May-23 23:55 UTC. Time now 2018-May-24 00:07 UTC.
Position N 31°36' E 121°19'.

Length 175 m; draft 10.4 m.

Type: Cargo ship. MMSI: 353285000.

Date/timePositionNaut miles runAvg speedWind from/ knotsBaromVisibWave heightAir tempDewpointWater temp
2018-May-23 23:55N 31°36' E 121°19'0 0.0
2018-May-23 23:28N 31°36' E 121°19'0 0.1
2018-May-23 22:55N 31°36' E 121°19'0 0.2
2018-May-23 22:16N 31°36' E 121°19'0 0.3
2018-May-23 21:55N 31°36' E 121°19'0 0.1
2018-May-23 21:25N 31°36' E 121°19'0 0.0
2018-May-23 20:49N 31°35' E 121°19'0 0.0
2018-May-23 20:28N 31°35' E 121°19'0 0.0
2018-May-23 19:55N 31°35' E 121°19'0 0.0
2018-May-23 19:25N 31°35' E 121°19'0 0.0
2018-May-23 18:55N 31°35' E 121°19'0 0.0
2018-May-23 18:22N 31°35' E 121°19'0 0.0
2018-May-23 17:58N 31°35' E 121°19'0 0.0
2018-May-23 17:19N 31°35' E 121°19'0 0.0
2018-May-23 16:58N 31°35' E 121°19'0 0.0
2018-May-23 16:28N 31°35' E 121°19'0 0.1
2018-May-23 15:58N 31°36' E 121°19'0 0.0
2018-May-23 15:28N 31°36' E 121°19'0 0.0
2018-May-23 14:58N 31°36' E 121°19'0 0.2
2018-May-23 14:28N 31°36' E 121°19'0 0.3
2018-May-23 13:58N 31°36' E 121°19'0 0.0
2018-May-23 13:28N 31°36' E 121°19'0 0.0
2018-May-23 12:55N 31°36' E 121°19'0 0.0
2018-May-23 12:28N 31°36' E 121°19'0 0.0
2018-May-23 11:49N 31°36' E 121°19'0 0.0
2018-May-23 11:25N 31°36' E 121°19'0 0.0
2018-May-23 10:58N 31°36' E 121°19'0 0.0
2018-May-23 10:28N 31°36' E 121°19'0 0.2
2018-May-23 09:58N 31°36' E 121°19'0 0.2
2018-May-23 09:22N 31°36' E 121°19'0 0.0
2018-May-23 08:52N 31°35' E 121°19'0 0.0
2018-May-23 08:28N 31°35' E 121°19'0 0.0
2018-May-23 07:55N 31°35' E 121°19'0 0.0
2018-May-23 07:28N 31°35' E 121°19'0 0.0
2018-May-23 06:58N 31°35' E 121°19'0 0.1
2018-May-23 06:28N 31°36' E 121°19'0 0.0
2018-May-23 05:58N 31°36' E 121°19'0 0.0
2018-May-23 05:25N 31°36' E 121°19'0 0.0
2018-May-23 04:55N 31°36' E 121°19'0 0.0
2018-May-23 04:28N 31°36' E 121°19'0 0.0
2018-May-23 03:58N 31°36' E 121°19'0 0.0
2018-May-23 03:28N 31°36' E 121°19'0 0.0
2018-May-23 02:55N 31°36' E 121°19'0 0.0
2018-May-23 02:28N 31°36' E 121°19'0 0.0
2018-May-23 01:55N 31°36' E 121°19'0 0.1
2018-May-23 01:25N 31°35' E 121°19'0 0.3
2018-May-23 00:58N 31°36' E 121°19'0 0.1
2018-May-23 00:25N 31°36' E 121°19'0 0.0
2018-May-22 23:58N 31°36' E 121°19'0 0.0
2018-May-22 23:28N 31°36' E 121°19'0 0.0
2018-May-22 22:58N 31°36' E 121°19'0 0.0
2018-May-22 22:28N 31°36' E 121°19'0 0.0
2018-May-22 21:58N 31°36' E 121°19'0 0.2
2018-May-22 21:28N 31°36' E 121°19'0 0.2
2018-May-22 20:58N 31°35' E 121°19'0 0.0
2018-May-22 20:25N 31°35' E 121°19'0 0.1
2018-May-22 19:55N 31°35' E 121°19'0 0.0
2018-May-22 19:25N 31°35' E 121°19'0 0.0
2018-May-22 18:55N 31°36' E 121°19'0 0.0
2018-May-22 18:22N 31°35' E 121°19'0 0.0
2018-May-22 17:58N 31°36' E 121°19'0 0.1
2018-May-22 17:28N 31°35' E 121°19'0 0.1
2018-May-22 16:55N 31°36' E 121°19'0 0.0
2018-May-22 16:25N 31°36' E 121°19'0 0.0
2018-May-22 15:55N 31°35' E 121°19'0 0.1
2018-May-22 15:28N 31°36' E 121°19'0 0.0
2018-May-22 14:58N 31°35' E 121°19'0 0.0
2018-May-22 14:28N 31°36' E 121°19'0 0.2
2018-May-22 13:55N 31°36' E 121°19'2 4.3
2018-May-22 13:27N 31°34' E 121°20'4 8.6
2018-May-22 13:00N 31°31' E 121°23'5 9.5
2018-May-22 12:30N 31°28' E 121°28'4 7.3
2018-May-22 12:00N 31°25' E 121°31'28 9.0
2018-May-22 08:55N 31°15' E 122°00'15 9.6
2018-May-22 07:20N 31°07' E 122°16'  

Dump ship's entire track history